Time;durP1;ratioP1;P1;durP2;ratioP2;P2;SDS_P1;SDS_P2;PMS_P1;PMS_P2;Temp;Humidity;BMP_temperature;BMP_pressure;BME280_temperature;BME280_humidity;BME280_pressure;Samples;Min_cycle;Max_cycle;Signal;HPM_P1;HPM_P2
2022/03/11 00:02:36;;;;;;;11.60;6.73;;;;;;;-6.59;71.95;98993.47;6163137;28;20244;-67
2022/03/11 00:05:40;;;;;;;9.87;5.90;;;;;;;-6.59;72.42;98990.91;6154898;28;20237;-67
2022/03/11 00:08:42;;;;;;;11.27;5.77;;;;;;;-6.57;72.64;98991.75;6155199;28;20237;-66
2022/03/11 00:11:44;;;;;;;10.53;6.40;;;;;;;-6.58;72.67;98998.59;6161085;28;20590;-66
2022/03/11 00:14:46;;;;;;;11.17;6.43;;;;;;;-6.63;72.38;98997.69;6152462;28;20233;-66
2022/03/11 00:17:48;;;;;;;9.93;6.17;;;;;;;-6.66;73.19;99000.22;6160377;28;20646;-66
2022/03/11 00:20:50;;;;;;;11.63;6.60;;;;;;;-6.73;72.63;99009.59;6168807;28;20388;-66
2022/03/11 00:23:52;;;;;;;12.50;6.63;;;;;;;-6.76;72.20;98996.72;6173458;28;20617;-67
2022/03/11 00:26:54;;;;;;;10.00;5.87;;;;;;;-6.79;72.94;98998.41;6154003;28;20271;-66
2022/03/11 00:29:56;;;;;;;12.27;6.67;;;;;;;-6.83;72.72;98994.09;6153469;28;20252;-67
2022/03/11 00:32:58;;;;;;;10.83;6.77;;;;;;;-6.86;72.83;98997.47;6155014;28;20244;-67
2022/03/11 00:36:07;;;;;;;12.70;6.23;;;;;;;-6.89;72.80;98994.03;6143019;28;20709;-66
2022/03/11 00:39:13;;;;;;;12.63;6.47;;;;;;;-6.91;72.24;98996.59;6175768;28;20240;-66
2022/03/11 00:42:15;;;;;;;14.53;6.90;;;;;;;-6.84;72.90;98987.25;6153698;28;20755;-67
2022/03/11 00:45:18;;;;;;;14.13;6.23;;;;;;;-6.82;72.96;98991.53;6165420;28;20273;-66
2022/03/11 00:48:21;;;;;;;9.10;6.27;;;;;;;-6.83;73.26;98994.09;6163655;28;20236;-66
2022/03/11 00:51:23;;;;;;;10.53;6.67;;;;;;;-6.81;72.98;98985.56;6153955;28;20316;-66
2022/03/11 00:54:25;;;;;;;10.90;6.30;;;;;;;-6.75;72.75;98988.19;6153097;28;20312;-66
2022/03/11 00:57:27;;;;;;;12.33;6.43;;;;;;;-6.77;72.28;98986.44;6153887;28;20236;-66
2022/03/11 01:00:29;;;;;;;12.77;6.77;;;;;;;-6.72;73.11;98977.09;6153742;28;20232;-66
2022/03/11 01:03:32;;;;;;;10.03;5.87;;;;;;;-6.51;73.43;98981.56;6153608;28;20308;-66
2022/03/11 01:06:34;;;;;;;14.20;7.60;;;;;;;-6.08;71.04;98972.44;6153887;28;20225;-65
2022/03/11 01:09:36;;;;;;;12.70;6.77;;;;;;;-5.97;70.70;98975.91;6169493;28;20229;-66
2022/03/11 01:12:38;;;;;;;12.87;6.87;;;;;;;-5.86;70.81;98973.38;6154043;28;20230;-66
2022/03/11 01:15:40;;;;;;;10.10;6.47;;;;;;;-5.79;70.14;98975.16;6166783;28;20222;-66
2022/03/11 01:18:42;;;;;;;11.97;6.80;;;;;;;-5.70;69.49;98973.50;6141759;28;20597;-66
2022/03/11 01:21:44;;;;;;;9.47;5.90;;;;;;;-5.31;66.10;98972.78;6172867;28;20304;-67
2022/03/11 01:24:47;;;;;;;12.23;7.80;;;;;;;-5.21;66.79;98969.41;6178711;28;20324;-65
2022/03/11 01:27:49;;;;;;;12.43;6.00;;;;;;;-4.98;64.50;98979.72;6158027;28;20222;-65
2022/03/11 01:30:51;;;;;;;10.83;6.07;;;;;;;-4.89;64.52;98976.34;6158269;28;20233;-66
2022/03/11 01:33:53;;;;;;;9.07;5.33;;;;;;;-4.83;63.66;98973.75;6172855;28;20599;-67
2022/03/11 01:36:55;;;;;;;8.87;5.33;;;;;;;-4.92;64.77;98989.19;6155068;28;20246;-65
2022/03/11 01:39:57;;;;;;;12.50;5.70;;;;;;;-4.96;65.43;98982.31;6188338;28;20233;-66
2022/03/11 01:42:59;;;;;;;9.57;5.73;;;;;;;-4.97;64.83;98985.72;6157455;28;20333;-67
2022/03/11 01:46:01;;;;;;;8.73;5.40;;;;;;;-4.64;62.15;98984.94;6162856;28;20674;-66
2022/03/11 01:49:07;;;;;;;9.10;5.57;;;;;;;-4.64;62.30;98984.94;6158433;28;20321;-66
2022/03/11 01:52:12;;;;;;;12.77;5.50;;;;;;;-4.37;59.31;98982.38;6156422;28;20257;-66
2022/03/11 01:55:15;;;;;;;11.97;5.27;;;;;;;-4.37;60.23;98984.09;6134202;28;20685;-66
2022/03/11 01:58:17;;;;;;;8.27;4.67;;;;;;;-4.39;59.30;98980.66;6145100;28;20381;-66
2022/03/11 02:01:20;;;;;;;9.37;4.93;;;;;;;-4.24;58.89;98984.09;6151759;28;20287;-66
2022/03/11 02:04:22;;;;;;;9.40;5.13;;;;;;;-4.20;58.41;98983.25;6157677;28;20285;-66
2022/03/11 02:07:25;;;;;;;9.03;5.10;;;;;;;-4.18;58.92;98996.94;6157294;28;20236;-66
2022/03/11 02:10:29;;;;;;;7.20;5.57;;;;;;;-4.06;57.57;98995.22;6157541;28;20709;-67
2022/03/11 02:13:59;;;;;;;7.87;5.00;;;;;;;-4.10;57.74;98991.81;6171818;28;20324;-66
2022/03/11 02:17:01;;;;;;;10.33;5.07;;;;;;;-4.18;58.75;98996.09;6170371;28;20308;-66
2022/03/11 02:20:03;;;;;;;7.90;5.07;;;;;;;-4.35;59.60;98993.53;6155727;28;20727;-66
2022/03/11 02:23:08;;;;;;;9.87;5.27;;;;;;;-4.36;58.38;99011.56;6181475;28;20236;-66
2022/03/11 02:26:10;;;;;;;6.47;4.60;;;;;;;-4.24;58.80;99006.41;6155351;28;20234;-66
2022/03/11 02:29:12;;;;;;;11.07;5.03;;;;;;;-4.27;58.54;99001.25;6155790;28;20312;-66
2022/03/11 02:32:14;;;;;;;8.23;4.90;;;;;;;-4.42;59.03;99009.00;6155257;28;20655;-66
2022/03/11 02:35:18;;;;;;;7.37;4.97;;;;;;;-4.55;60.54;99000.41;6157134;28;20241;-67
2022/03/11 02:38:20;;;;;;;8.87;4.60;;;;;;;-4.64;61.09;99005.53;6156697;28;20611;-66
2022/03/11 02:41:22;;;;;;;8.43;5.07;;;;;;;-4.28;58.29;99002.97;6171736;28;20309;-66
2022/03/11 02:44:25;;;;;;;9.70;4.97;;;;;;;-4.17;57.72;99008.97;6154540;28;20370;-67
2022/03/11 02:47:27;;;;;;;6.93;4.87;;;;;;;-4.31;58.10;99009.88;6176400;28;20236;-66
2022/03/11 02:50:30;;;;;;;7.37;4.57;;;;;;;-4.42;59.87;99014.16;6155531;28;20320;-67
2022/03/11 02:53:33;;;;;;;8.80;5.00;;;;;;;-4.39;58.17;99009.00;6186246;28;20237;-66
2022/03/11 02:56:35;;;;;;;7.27;4.60;;;;;;;-4.46;58.10;99003.84;6156347;28;20308;-67
2022/03/11 02:59:37;;;;;;;8.50;5.10;;;;;;;-4.48;58.53;99008.13;6171002;28;20320;-66
2022/03/11 03:02:39;;;;;;;7.73;4.80;;;;;;;-4.52;58.48;99006.41;6156340;28;20233;-66
2022/03/11 03:05:41;;;;;;;6.30;4.43;;;;;;;-4.60;58.81;99008.13;6156925;28;20760;-66
2022/03/11 03:08:43;;;;;;;7.37;4.77;;;;;;;-4.65;58.92;99012.41;6170891;28;20371;-66
2022/03/11 03:11:45;;;;;;;6.47;4.47;;;;;;;-4.67;58.73;99015.81;6154966;28;20596;-67
2022/03/11 03:14:47;;;;;;;6.70;4.27;;;;;;;-4.76;59.98;99020.97;6155930;28;20465;-65
2022/03/11 03:17:51;;;;;;;7.03;4.90;;;;;;;-4.78;59.43;99026.09;6154531;28;20694;-66
2022/03/11 03:20:53;;;;;;;8.50;5.07;;;;;;;-4.69;59.18;99023.53;6169554;28;20320;-66
2022/03/11 03:23:55;;;;;;;7.07;4.40;;;;;;;-4.73;59.61;99019.25;6171925;28;20237;-66
2022/03/11 03:26:58;;;;;;;6.07;4.77;;;;;;;-4.78;59.61;99023.53;6166620;28;20796;-66
2022/03/11 03:29:59;;;;;;;8.33;5.13;;;;;;;-4.81;59.42;99027.84;6170020;28;20246;-66
2022/03/11 03:33:02;;;;;;;6.53;4.57;;;;;;;-4.83;58.98;99022.69;6211115;28;20225;-66
2022/03/11 03:36:22;;;;;;;6.50;4.13;;;;;;;-4.94;59.74;99029.50;6155524;28;20227;-66
2022/03/11 03:39:26;;;;;;;5.90;4.23;;;;;;;-5.05;60.03;99021.75;6155092;28;20230;-65
2022/03/11 03:42:28;;;;;;;7.07;4.67;;;;;;;-5.12;60.35;99026.88;6155467;28;20260;-65
2022/03/11 03:45:31;;;;;;;8.27;4.67;;;;;;;-5.21;60.75;99027.72;6160469;28;20254;-67
2022/03/11 03:48:34;;;;;;;7.43;4.60;;;;;;;-5.28;61.09;99020.78;6158620;28;20395;-66
2022/03/11 03:51:38;;;;;;;7.40;4.70;;;;;;;-5.28;61.03;99029.38;6154849;28;20244;-67
2022/03/11 03:54:41;;;;;;;6.57;4.17;;;;;;;-5.31;61.22;99025.94;6154437;28;20258;-66
2022/03/11 03:57:43;;;;;;;9.13;4.77;;;;;;;-5.38;61.10;99024.19;6153395;28;20643;-67
2022/03/11 04:00:45;;;;;;;6.70;4.40;;;;;;;-5.48;61.81;99031.00;6155395;28;20324;-67
2022/03/11 04:03:47;;;;;;;9.13;3.83;;;;;;;-5.54;61.68;99027.53;6155432;28;20232;-66
2022/03/11 04:06:49;;;;;;;11.23;4.70;;;;;;;-5.57;61.53;99030.97;6154514;28;20265;-66
2022/03/11 04:09:51;;;;;;;6.03;4.27;;;;;;;-5.61;61.58;99027.53;6131398;28;20338;-66
2022/03/11 04:12:54;;;;;;;6.70;4.03;;;;;;;-5.47;60.29;99024.16;6151529;28;20241;-66
2022/03/11 04:15:56;;;;;;;7.30;5.00;;;;;;;-5.45;60.25;99037.88;6163904;28;20602;-67
2022/03/11 04:19:00;;;;;;;8.57;4.87;;;;;;;-5.53;60.74;99030.13;6164713;28;20624;-67
2022/03/11 04:22:03;;;;;;;8.37;4.57;;;;;;;-5.54;61.26;99033.56;6168498;28;20243;-66
2022/03/11 04:25:05;;;;;;;8.23;5.00;;;;;;;-5.55;61.04;99038.69;6170167;28;20561;-66
2022/03/11 04:28:07;;;;;;;6.37;4.17;;;;;;;-5.55;60.67;99036.09;6154272;28;20260;-66
2022/03/11 04:31:12;;;;;;;6.37;4.20;;;;;;;-5.64;61.53;99035.22;6169653;28;20312;-66
2022/03/11 04:34:14;;;;;;;5.93;4.03;;;;;;;-5.71;61.43;99036.03;6154818;28;20241;-66
2022/03/11 04:37:16;;;;;;;7.07;4.50;;;;;;;-5.68;60.66;99042.88;6154539;28;20237;-65
2022/03/11 04:40:18;;;;;;;8.80;4.53;;;;;;;-5.75;61.45;99051.41;6155602;28;20779;-66
2022/03/11 04:43:20;;;;;;;6.03;4.20;;;;;;;-5.76;61.93;99053.13;6169398;28;20241;-65
2022/03/11 04:46:22;;;;;;;6.13;4.27;;;;;;;-5.81;61.78;99046.25;6166599;28;20240;-65
2022/03/11 04:49:24;;;;;;;8.13;4.87;;;;;;;-5.82;61.65;99053.09;6170119;28;20229;-66
2022/03/11 04:52:26;;;;;;;6.63;4.27;;;;;;;-5.71;60.41;99051.47;6159012;28;20237;-66
2022/03/11 04:55:29;;;;;;;6.60;4.10;;;;;;;-5.67;60.51;99039.47;6158820;28;20233;-67
2022/03/11 04:58:31;;;;;;;7.77;4.83;;;;;;;-5.66;59.92;99042.06;6158746;28;20233;-66
2022/03/11 05:01:34;;;;;;;9.27;4.57;;;;;;;-5.64;59.91;99036.91;6159185;28;20377;-66
2022/03/11 05:04:36;;;;;;;5.53;4.30;;;;;;;-5.60;59.51;99033.53;6158416;28;20264;-66
2022/03/11 05:07:39;;;;;;;7.97;4.53;;;;;;;-5.59;60.01;99045.53;6158754;28;20735;-66
2022/03/11 05:10:41;;;;;;;6.53;4.00;;;;;;;-5.63;59.52;99043.78;6158901;28;20261;-66
2022/03/11 05:13:43;;;;;;;7.17;3.77;;;;;;;-5.60;59.37;99041.25;6173582;28;20264;-66
2022/03/11 05:16:45;;;;;;;6.43;4.13;;;;;;;-5.61;59.22;99039.53;6167978;28;20249;-65
2022/03/11 05:19:47;;;;;;;8.43;4.60;;;;;;;-5.60;59.32;99042.09;6174332;28;20764;-66
2022/03/11 05:22:50;;;;;;;7.37;4.93;;;;;;;-5.61;59.60;99040.38;6182076;28;20763;-67
2022/03/11 05:25:52;;;;;;;7.03;4.20;;;;;;;-5.63;59.08;99043.78;6182055;28;20754;-67
2022/03/11 05:28:58;;;;;;;8.23;4.30;;;;;;;-5.66;58.79;99042.06;6215557;28;20693;-67
2022/03/11 05:32:02;;;;;;;7.97;5.07;;;;;;;-5.70;59.96;99035.19;6181500;28;20260;-67
2022/03/11 05:35:04;;;;;;;7.57;4.93;;;;;;;-5.72;59.23;99044.59;6180829;28;20233;-67
2022/03/11 05:38:06;;;;;;;6.73;4.37;;;;;;;-5.68;59.36;99041.19;6181069;28;20599;-66
2022/03/11 05:41:08;;;;;;;6.57;4.23;;;;;;;-5.61;58.89;99047.22;6182116;28;20252;-66
2022/03/11 05:44:10;;;;;;;6.87;4.33;;;;;;;-5.60;58.97;99047.25;6179475;28;20702;-66
2022/03/11 05:47:12;;;;;;;6.97;4.67;;;;;;;-5.58;59.03;99047.22;6200030;28;20233;-66
2022/03/11 05:50:14;;;;;;;6.93;4.30;;;;;;;-5.50;57.98;99044.72;6197346;28;20233;-67
2022/03/11 05:53:16;;;;;;;7.00;5.00;;;;;;;-5.43;58.28;99051.59;6180923;28;20225;-66
2022/03/11 05:56:18;;;;;;;7.10;4.20;;;;;;;-5.44;57.75;99048.19;6181655;28;20229;-67
2022/03/11 05:59:21;;;;;;;10.07;4.80;;;;;;;-5.40;57.35;99057.66;6180511;28;20287;-66
2022/03/11 06:02:23;;;;;;;6.53;4.07;;;;;;;-5.38;57.44;99055.91;6179090;28;20243;-66
2022/03/11 06:05:26;;;;;;;6.77;4.10;;;;;;;-5.40;57.45;99067.94;6184226;28;20270;-67
2022/03/11 06:08:28;;;;;;;5.70;4.10;;;;;;;-5.36;57.06;99063.63;6183650;28;20240;-66
2022/03/11 06:11:29;;;;;;;7.50;4.50;;;;;;;-5.35;57.32;99068.81;6183045;28;20279;-66
2022/03/11 06:14:31;;;;;;;8.03;4.53;;;;;;;-5.32;56.67;99070.53;6186392;28;20221;-66
2022/03/11 06:17:33;;;;;;;9.57;5.10;;;;;;;-5.28;56.81;99073.13;6206864;28;20228;-67
2022/03/11 06:20:36;;;;;;;5.80;4.63;;;;;;;-5.22;56.42;99082.59;6189892;28;20236;-67
2022/03/11 06:23:38;;;;;;;8.80;4.50;;;;;;;-5.23;57.18;99081.72;6182829;28;20245;-66
2022/03/11 06:26:41;;;;;;;5.73;4.40;;;;;;;-5.23;56.84;99083.44;6181600;28;20243;-66
2022/03/11 06:29:43;;;;;;;6.63;4.07;;;;;;;-5.22;57.06;99085.16;6181333;28;20221;-66
2022/03/11 06:32:47;;;;;;;6.60;4.17;;;;;;;-5.24;57.20;99081.72;6180348;28;20225;-66
2022/03/11 06:35:50;;;;;;;7.90;4.80;;;;;;;-5.23;56.91;99078.28;6180609;28;20248;-66
2022/03/11 06:38:52;;;;;;;6.43;4.33;;;;;;;-5.13;56.49;99077.47;6196862;28;20232;-66
2022/03/11 06:41:54;;;;;;;6.63;4.30;;;;;;;-5.06;56.28;99084.38;6180686;28;20237;-66
2022/03/11 06:45:06;;;;;;;10.53;4.73;;;;;;;-4.97;55.60;99093.84;6180784;28;20263;-67
2022/03/11 06:48:07;;;;;;;8.77;4.97;;;;;;;-4.79;54.63;99078.44;6161439;28;20599;-67
2022/03/11 06:51:09;;;;;;;11.30;5.20;;;;;;;-4.72;54.15;99080.22;6158767;28;20731;-67
2022/03/11 06:54:11;;;;;;;7.47;4.63;;;;;;;-4.71;54.54;99096.53;6170226;28;20295;-67
2022/03/11 06:57:15;;;;;;;9.03;5.20;;;;;;;-4.71;54.86;99102.53;6156015;28;20213;-67
2022/03/11 07:00:17;;;;;;;7.87;4.50;;;;;;;-4.64;54.08;99091.38;6155586;28;20224;-66
2022/03/11 07:03:19;;;;;;;11.13;5.13;;;;;;;-4.59;54.01;99099.97;6157208;28;20759;-67
2022/03/11 07:06:22;;;;;;;7.50;4.67;;;;;;;-4.52;54.42;99098.28;6180258;28;20241;-67
2022/03/11 07:09:24;;;;;;;8.60;5.17;;;;;;;-4.52;54.23;99095.72;6178886;28;20611;-67
2022/03/11 07:12:27;;;;;;;7.83;4.43;;;;;;;-4.52;54.97;99100.88;6179680;28;20602;-67
2022/03/11 07:15:30;;;;;;;8.27;4.30;;;;;;;-4.45;54.52;99100.00;6182167;28;20644;-66
2022/03/11 07:18:32;;;;;;;7.50;4.50;;;;;;;-4.37;54.47;99102.59;6187746;28;20645;-66
2022/03/11 07:21:34;;;;;;;7.63;5.10;;;;;;;-4.30;53.89;99094.03;6179338;28;20244;-67
2022/03/11 07:24:36;;;;;;;8.07;4.63;;;;;;;-4.20;52.73;99103.50;6210086;28;20237;-67
2022/03/11 07:27:38;;;;;;;7.50;4.43;;;;;;;-4.14;52.04;99106.94;6179557;28;20238;-67
2022/03/11 07:30:40;;;;;;;7.93;4.47;;;;;;;-4.05;52.25;99095.75;6179984;28;20236;-67
2022/03/11 07:33:42;;;;;;;7.50;4.20;;;;;;;-3.94;52.17;99090.63;6194534;28;20264;-67
2022/03/11 07:36:44;;;;;;;11.00;4.83;;;;;;;-3.84;50.98;99105.22;6177566;28;20602;-67
2022/03/11 07:39:46;;;;;;;7.63;4.93;;;;;;;-3.75;51.17;99098.34;6176971;28;20233;-67
2022/03/11 07:42:48;;;;;;;7.30;4.80;;;;;;;-3.67;51.14;99103.50;6178246;28;20278;-67
2022/03/11 07:45:50;;;;;;;6.60;4.30;;;;;;;-3.59;50.48;99106.91;6201183;28;20291;-67
2022/03/11 07:48:53;;;;;;;9.60;4.73;;;;;;;-3.46;49.72;99103.47;6191969;28;20240;-67
2022/03/11 07:51:55;;;;;;;7.87;5.03;;;;;;;-3.35;49.97;99100.88;6178520;28;20312;-67
2022/03/11 07:54:57;;;;;;;7.10;4.17;;;;;;;-3.20;49.36;99106.00;6178204;28;20689;-67
2022/03/11 07:57:59;;;;;;;7.67;4.80;;;;;;;-2.93;48.60;99106.78;6192706;28;20240;-66
2022/03/11 08:01:01;;;;;;;5.67;4.23;;;;;;;-2.77;47.63;99103.25;6177837;28;20233;-67
2022/03/11 08:04:05;;;;;;;7.47;4.67;;;;;;;-2.47;47.53;99112.56;6178368;28;20264;-67
2022/03/11 08:07:09;;;;;;;7.27;4.27;;;;;;;-2.17;46.92;99103.78;6178175;28;20691;-67
2022/03/11 08:10:11;;;;;;;7.23;4.23;;;;;;;-1.93;45.95;99104.47;6176222;28;20574;-67
2022/03/11 08:13:15;;;;;;;6.73;4.70;;;;;;;-1.63;45.93;99103.38;6178728;28;20957;-67
2022/03/11 08:16:17;;;;;;;6.97;4.53;;;;;;;-1.51;44.42;99102.41;6194326;28;20237;-67
2022/03/11 08:19:19;;;;;;;5.60;4.33;;;;;;;-1.67;44.62;99106.84;6178982;28;20244;-67
2022/03/11 08:22:23;;;;;;;9.60;5.33;;;;;;;-1.45;44.28;99091.13;6176876;28;20329;-67
2022/03/11 08:25:28;;;;;;;6.87;4.47;;;;;;;-1.06;43.53;99098.47;6178425;28;20240;-67
2022/03/11 08:28:30;;;;;;;6.93;4.43;;;;;;;-0.58;43.68;99091.81;6177803;28;20237;-67
2022/03/11 08:31:32;;;;;;;6.13;4.90;;;;;;;-0.52;43.61;99101.28;6178405;28;20237;-67
2022/03/11 08:34:35;;;;;;;7.10;4.30;;;;;;;-0.19;43.10;99093.00;6191555;28;20244;-67
2022/03/11 08:37:57;;;;;;;8.97;4.70;;;;;;;0.39;41.81;99086.91;6164790;28;20240;-67
2022/03/11 08:41:00;;;;;;;5.83;4.20;;;;;;;0.75;40.52;99085.38;6178147;28;20578;-68
2022/03/11 08:44:05;;;;;;;7.60;4.60;;;;;;;0.78;40.05;99092.28;6177823;28;20236;-68
2022/03/11 08:47:07;;;;;;;7.63;4.40;;;;;;;1.02;39.03;99079.66;6189640;28;20240;-69
2022/03/11 08:50:11;;;;;;;8.23;5.00;;;;;;;1.15;39.59;99075.09;6210288;28;20232;-68
2022/03/11 08:53:20;;;;;;;8.17;4.57;;;;;;;1.17;38.64;99077.66;6193985;28;20217;-69
2022/03/11 08:56:25;;;;;;;7.07;4.50;;;;;;;1.32;38.66;99080.78;6178689;28;20233;-69
2022/03/11 08:59:27;;;;;;;7.00;4.93;;;;;;;1.22;38.54;99089.66;6192548;28;20704;-67
2022/03/11 09:02:29;;;;;;;8.10;4.93;;;;;;;1.22;38.49;99087.06;6178248;28;20229;-68
2022/03/11 09:05:31;;;;;;;5.43;3.83;;;;;;;1.45;38.99;99092.66;6178390;28;20237;-67
2022/03/11 09:08:33;;;;;;;7.03;4.30;;;;;;;1.79;37.31;99087.59;6176696;28;20734;-68
2022/03/11 09:11:38;;;;;;;6.10;4.80;;;;;;;1.42;37.71;99087.50;6176225;28;20306;-67
2022/03/11 09:14:40;;;;;;;7.67;4.80;;;;;;;1.15;37.86;99082.03;6207423;28;20708;-67
2022/03/11 09:17:45;;;;;;;6.13;4.40;;;;;;;1.31;36.98;99070.41;6194302;28;20225;-68
2022/03/11 09:20:47;;;;;;;5.90;4.00;;;;;;;1.49;37.67;99070.03;6192162;28;20244;-68
2022/03/11 09:23:49;;;;;;;6.53;4.37;;;;;;;1.58;36.63;99075.03;6176525;28;20240;-67
2022/03/11 09:26:52;;;;;;;10.17;5.00;;;;;;;2.14;37.71;99075.47;6177382;28;20712;-67
2022/03/11 09:29:55;;;;;;;7.23;4.47;;;;;;;2.16;36.99;99071.09;6176678;28;20764;-67
2022/03/11 09:32:59;;;;;;;10.33;4.07;;;;;;;2.31;37.37;99069.84;6177385;28;20372;-68
2022/03/11 09:36:13;;;;;;;6.57;4.27;;;;;;;2.80;35.29;99072.03;6180539;28;20767;-66
2022/03/11 09:39:15;;;;;;;5.63;4.40;;;;;;;2.86;35.51;99075.34;6172478;28;20527;-68
2022/03/11 09:42:17;;;;;;;6.00;4.80;;;;;;;3.01;35.45;99063.63;6157720;28;20250;-69
2022/03/11 09:45:21;;;;;;;6.17;4.27;;;;;;;2.97;34.95;99060.28;6161602;28;20225;-67
2022/03/11 09:48:23;;;;;;;7.27;4.20;;;;;;;2.88;33.96;99076.16;6178957;28;21005;-68
2022/03/11 09:51:26;;;;;;;7.70;4.33;;;;;;;3.05;35.14;99062.66;6157722;28;20599;-68
2022/03/11 09:54:28;;;;;;;6.30;4.50;;;;;;;3.59;35.14;99049.75;6158231;28;20233;-68
2022/03/11 09:57:30;;;;;;;7.17;4.77;;;;;;;3.77;34.59;99052.72;6156643;28;20227;-67
2022/03/11 10:00:33;;;;;;;8.27;5.07;;;;;;;3.95;34.19;99060.81;6174972;28;20240;-68
2022/03/11 10:03:36;;;;;;;6.57;4.33;;;;;;;3.85;33.83;99051.56;6163222;28;20286;-67
2022/03/11 10:06:44;;;;;;;9.00;5.23;;;;;;;4.41;35.45;99049.72;6156115;28;20244;-68
2022/03/11 10:09:46;;;;;;;6.67;5.17;;;;;;;4.30;33.41;99040.53;6156632;28;20225;-68
2022/03/11 10:12:49;;;;;;;7.53;4.77;;;;;;;4.32;35.10;99043.94;6157238;28;20228;-68
2022/03/11 10:15:51;;;;;;;5.60;4.20;;;;;;;4.30;33.21;99037.91;6163417;28;20371;-68
2022/03/11 10:18:55;;;;;;;11.47;4.97;;;;;;;3.50;33.01;99042.19;6156732;28;20704;-68
2022/03/11 10:22:00;;;;;;;5.50;4.90;;;;;;;3.92;33.22;99039.16;6170579;28;20243;-69
2022/03/11 10:25:21;;;;;;;6.03;4.10;;;;;;;4.12;33.93;99038.53;6152437;28;20333;-68
2022/03/11 10:28:26;;;;;;;6.70;4.50;;;;;;;3.93;32.15;99049.56;6157394;28;20243;-68
2022/03/11 10:31:32;;;;;;;7.30;4.47;;;;;;;3.69;33.76;99039.91;6156821;28;20242;-69
2022/03/11 10:34:36;;;;;;;9.40;4.67;;;;;;;4.44;33.00;99033.94;6157376;28;20247;-68
2022/03/11 10:37:38;;;;;;;6.50;4.50;;;;;;;4.69;31.08;99046.19;6156123;28;20244;-69
2022/03/11 10:40:42;;;;;;;6.33;4.63;;;;;;;4.59;31.62;99034.34;6171466;28;20773;-69
2022/03/11 10:43:44;;;;;;;7.63;4.50;;;;;;;4.08;32.30;99030.81;6155526;28;20235;-69
2022/03/11 10:46:46;;;;;;;5.53;4.53;;;;;;;4.41;32.26;99041.03;6170774;28;20728;-69
2022/03/11 10:49:55;;;;;;;7.73;4.47;;;;;;;4.70;32.25;99027.81;6132758;28;20240;-69
2022/03/11 10:52:57;;;;;;;6.83;4.17;;;;;;;4.86;31.67;99022.91;6168795;28;20232;-69
2022/03/11 10:56:06;;;;;;;10.43;5.13;;;;;;;4.56;30.51;99024.84;6180232;28;20235;-68
2022/03/11 10:59:26;;;;;;;5.53;4.60;;;;;;;4.54;32.44;99025.78;6178513;28;20255;-68
2022/03/11 11:02:28;;;;;;;7.90;4.50;;;;;;;4.82;30.80;99022.16;6179778;28;20316;-69
2022/03/11 11:05:31;;;;;;;6.63;4.33;;;;;;;4.52;30.31;99006.69;6208598;28;20234;-68
2022/03/11 11:08:33;;;;;;;5.77;4.27;;;;;;;4.54;29.56;99010.94;6180145;28;20228;-70
2022/03/11 11:11:36;;;;;;;6.07;4.20;;;;;;;4.76;30.12;99001.47;6179846;28;20237;-68
2022/03/11 11:14:38;;;;;;;6.00;4.20;;;;;;;5.28;29.65;99004.78;6178832;28;20237;-69
2022/03/11 11:17:42;;;;;;;8.87;4.03;;;;;;;5.67;29.90;99002.38;6202270;28;20236;-69
2022/03/11 11:20:51;;;;;;;8.63;4.60;;;;;;;5.16;29.95;99003.47;6178442;28;20243;-68
2022/03/11 11:23:57;;;;;;;5.17;4.27;;;;;;;6.15;29.03;98983.00;6180029;28;20252;-68
2022/03/11 11:27:01;;;;;;;8.20;4.43;;;;;;;5.89;28.80;98979.66;6178287;28;20246;-67
2022/03/11 11:30:04;;;;;;;6.97;4.33;;;;;;;6.00;28.99;98981.00;6178038;28;20225;-68
2022/03/11 11:33:08;;;;;;;8.60;4.37;;;;;;;4.93;29.63;98981.66;6155482;28;20228;-69
2022/03/11 11:36:13;;;;;;;6.40;4.20;;;;;;;5.61;29.08;98972.94;6153729;28;20717;-70
2022/03/11 11:39:15;;;;;;;6.03;4.47;;;;;;;5.81;29.93;98967.75;6155261;28;20222;-68
2022/03/11 11:42:18;;;;;;;8.27;4.10;;;;;;;6.38;28.54;98964.53;6154483;28;20209;-67
2022/03/11 11:45:41;;;;;;;5.57;4.17;;;;;;;6.30;27.86;98959.59;6189684;28;22213;-67
2022/03/11 11:48:59;;;;;;;7.40;4.13;;;;;;;5.65;28.06;98962.31;6153057;28;20226;-67
2022/03/11 11:52:01;;;;;;;5.40;4.03;;;;;;;5.83;28.33;98972.03;6154759;28;20591;-67
2022/03/11 11:55:17;;;;;;;5.13;3.87;;;;;;;6.09;28.25;98955.25;6154856;28;20234;-67
2022/03/11 11:58:23;;;;;;;5.23;3.93;;;;;;;6.31;27.04;98960.47;6154981;28;20682;-67
2022/03/11 12:01:44;;;;;;;5.67;3.87;;;;;;;6.09;27.01;98957.88;6154779;28;20715;-67
2022/03/11 12:04:46;;;;;;;5.03;3.77;;;;;;;6.05;27.98;98956.31;6154052;28;20258;-67
2022/03/11 12:07:49;;;;;;;5.60;3.90;;;;;;;6.78;28.31;98955.78;6168788;28;20741;-69
2022/03/11 12:10:52;;;;;;;6.33;4.17;;;;;;;6.02;27.49;98947.72;6152760;28;20240;-68
2022/03/11 12:14:03;;;;;;;6.63;4.00;;;;;;;6.96;27.62;98947.09;6154217;28;20258;-67
2022/03/11 12:17:07;;;;;;;6.60;4.17;;;;;;;6.48;25.97;98934.38;6166819;28;20226;-66
2022/03/11 12:20:38;;;;;;;6.17;3.90;;;;;;;6.36;26.70;98932.28;6153863;28;20244;-66
2022/03/11 12:23:40;;;;;;;6.17;4.33;;;;;;;6.39;27.98;98934.75;6164507;28;20229;-66
2022/03/11 12:26:42;;;;;;;5.33;4.00;;;;;;;6.23;26.30;98925.84;6154712;28;20593;-67
2022/03/11 12:29:44;;;;;;;4.07;3.60;;;;;;;5.84;27.43;98928.34;6154617;28;20233;-68
2022/03/11 12:32:50;;;;;;;4.77;4.13;;;;;;;5.97;26.52;98926.97;6154096;28;20227;-68
2022/03/11 12:35:55;;;;;;;5.83;3.43;;;;;;;6.37;25.85;98927.91;6153542;28;20758;-68
2022/03/11 12:39:17;;;;;;;5.13;4.17;;;;;;;6.15;26.93;98925.34;6176323;28;20701;-68
2022/03/11 12:42:35;;;;;;;12.33;4.60;;;;;;;5.73;27.56;98913.06;6153686;28;20620;-68
2022/03/11 12:45:56;;;;;;;5.53;4.20;;;;;;;5.46;27.16;98924.69;6158864;28;20234;-68
2022/03/11 12:48:58;;;;;;;5.53;4.60;;;;;;;5.58;26.88;98921.56;6164072;28;20262;-69
2022/03/11 12:52:17;;;;;;;5.50;3.97;;;;;;;6.08;26.89;98909.03;6154175;28;20227;-69
2022/03/11 12:55:27;;;;;;;5.07;4.10;;;;;;;6.69;26.88;98910.75;6154329;28;20698;-69
2022/03/11 12:58:36;;;;;;;5.53;4.17;;;;;;;7.09;25.41;98902.72;6151665;28;20804;-69
2022/03/11 13:01:38;;;;;;;4.87;3.93;;;;;;;7.49;25.46;98893.81;6153741;28;20721;-68
2022/03/11 13:04:43;;;;;;;6.47;4.80;;;;;;;6.72;25.03;98902.72;6153430;28;20320;-68
2022/03/11 13:08:03;;;;;;;5.63;4.23;;;;;;;6.59;26.15;98891.91;6153809;28;20276;-69
2022/03/11 13:11:08;;;;;;;5.60;3.83;;;;;;;7.63;25.38;98890.53;6155741;28;20230;-68
2022/03/11 13:14:10;;;;;;;5.33;3.80;;;;;;;7.56;24.09;98897.00;6159532;28;20236;-68
2022/03/11 13:17:12;;;;;;;6.43;4.30;;;;;;;6.51;24.97;98901.91;6188785;28;20651;-69
2022/03/11 13:20:29;;;;;;;7.23;3.80;;;;;;;7.22;25.14;98890.75;6156416;28;20229;-68
2022/03/11 13:23:37;;;;;;;5.30;3.60;;;;;;;7.60;23.74;98901.16;6170566;28;20240;-67
2022/03/11 13:26:39;;;;;;;5.77;3.57;;;;;;;8.56;23.61;98899.81;6170852;28;20232;-68
2022/03/11 13:29:42;;;;;;;4.00;3.20;;;;;;;9.02;22.37;98884.16;6158235;28;20242;-68
2022/03/11 13:32:44;;;;;;;4.90;3.77;;;;;;;9.44;21.78;98888.84;6157858;28;20238;-68
2022/03/11 13:36:01;;;;;;;4.83;3.80;;;;;;;11.57;20.08;98881.13;6157667;28;20244;-68
2022/03/11 13:39:15;;;;;;;4.13;3.30;;;;;;;13.97;17.64;98878.31;6180059;28;20243;-68
2022/03/11 13:42:26;;;;;;;5.47;3.50;;;;;;;14.82;17.68;98873.56;6157329;28;20704;-69
2022/03/11 13:45:32;;;;;;;6.57;3.93;;;;;;;15.27;16.08;98865.59;6163226;28;20706;-68
2022/03/11 13:48:36;;;;;;;5.43;3.53;;;;;;;15.02;15.77;98872.00;6158978;28;20253;-70
2022/03/11 13:51:52;;;;;;;5.57;3.40;;;;;;;16.93;15.34;98860.44;6157953;28;20258;-69
2022/03/11 13:55:10;;;;;;;4.40;3.53;;;;;;;17.21;14.71;98862.38;6157674;28;20229;-68
2022/03/11 13:58:24;;;;;;;4.93;3.33;;;;;;;17.06;14.52;98850.41;6157552;28;20282;-70
2022/03/11 14:01:36;;;;;;;4.03;3.23;;;;;;;18.56;13.89;98856.25;6157156;28;20531;-68
2022/03/11 14:04:39;;;;;;;4.27;3.40;;;;;;;18.19;12.95;98853.50;6171494;28;20236;-67
2022/03/11 14:07:42;;;;;;;6.63;3.67;;;;;;;17.24;14.12;98855.91;6157351;28;20775;-69
2022/03/11 14:10:45;;;;;;;4.57;3.30;;;;;;;17.14;13.98;98845.22;6157308;28;20233;-69
2022/03/11 14:13:47;;;;;;;4.47;3.33;;;;;;;14.07;15.60;98861.72;6171725;28;20237;-68
2022/03/11 14:16:56;;;;;;;3.77;3.33;;;;;;;8.92;21.14;98868.03;6157589;28;20437;-68
2022/03/11 14:20:00;;;;;;;6.13;3.67;;;;;;;6.18;22.84;98872.81;6156080;28;20245;-68
2022/03/11 14:23:02;;;;;;;4.63;3.47;;;;;;;5.46;24.06;98878.41;6165701;28;20611;-68
2022/03/11 14:26:04;;;;;;;4.40;3.30;;;;;;;5.51;24.96;98880.81;6163898;28;20237;-68
2022/03/11 14:29:06;;;;;;;7.07;3.83;;;;;;;5.20;25.39;98866.34;6156919;28;20225;-66